sensor_id;sensor_type;location;lat;lon;timestamp;pressure;altitude;pressure_sealevel;temperature
19040;BMP180;9652;49.014;12.052;2024-01-15T00:00:18;96448.00;;;0.50
19040;BMP180;9652;49.014;12.052;2024-01-15T00:02:47;96389.00;;;0.40
19040;BMP180;9652;49.014;12.052;2024-01-15T00:05:14;96461.00;;;0.40
19040;BMP180;9652;49.014;12.052;2024-01-15T00:07:41;96472.00;;;0.40
19040;BMP180;9652;49.014;12.052;2024-01-15T00:10:09;96458.00;;;0.40
19040;BMP180;9652;49.014;12.052;2024-01-15T00:12:36;96458.00;;;0.50
19040;BMP180;9652;49.014;12.052;2024-01-15T00:15:05;96449.00;;;0.50
19040;BMP180;9652;49.014;12.052;2024-01-15T00:17:32;96453.00;;;0.60
19040;BMP180;9652;49.014;12.052;2024-01-15T00:19:59;96454.00;;;0.60
19040;BMP180;9652;49.014;12.052;2024-01-15T00:22:26;96446.00;;;0.60
19040;BMP180;9652;49.014;12.052;2024-01-15T00:24:53;96440.00;;;0.70
19040;BMP180;9652;49.014;12.052;2024-01-15T00:27:22;96461.00;;;0.70
19040;BMP180;9652;49.014;12.052;2024-01-15T00:29:49;96427.00;;;0.80
19040;BMP180;9652;49.014;12.052;2024-01-15T00:32:17;96427.00;;;0.80
19040;BMP180;9652;49.014;12.052;2024-01-15T00:34:45;96442.00;;;0.80
19040;BMP180;9652;49.014;12.052;2024-01-15T00:37:12;96452.00;;;0.80
19040;BMP180;9652;49.014;12.052;2024-01-15T00:39:39;96443.00;;;0.80
19040;BMP180;9652;49.014;12.052;2024-01-15T00:42:06;96445.00;;;0.80
19040;BMP180;9652;49.014;12.052;2024-01-15T00:44:34;96437.00;;;0.80
19040;BMP180;9652;49.014;12.052;2024-01-15T00:47:01;96425.00;;;0.90
19040;BMP180;9652;49.014;12.052;2024-01-15T00:49:29;96440.00;;;0.90
19040;BMP180;9652;49.014;12.052;2024-01-15T00:51:56;96445.00;;;0.90
19040;BMP180;9652;49.014;12.052;2024-01-15T00:54:23;96443.00;;;0.90
19040;BMP180;9652;49.014;12.052;2024-01-15T00:56:50;96434.00;;;0.90
19040;BMP180;9652;49.014;12.052;2024-01-15T00:59:17;96452.00;;;1.00
19040;BMP180;9652;49.014;12.052;2024-01-15T01:01:47;96427.00;;;1.00
19040;BMP180;9652;49.014;12.052;2024-01-15T01:04:15;96436.00;;;1.00
19040;BMP180;9652;49.014;12.052;2024-01-15T01:06:42;96408.00;;;1.00
19040;BMP180;9652;49.014;12.052;2024-01-15T01:09:09;96422.00;;;1.00
19040;BMP180;9652;49.014;12.052;2024-01-15T01:11:36;96437.00;;;1.00
19040;BMP180;9652;49.014;12.052;2024-01-15T01:14:03;96434.00;;;1.10
19040;BMP180;9652;49.014;12.052;2024-01-15T01:16:30;96445.00;;;1.10
19040;BMP180;9652;49.014;12.052;2024-01-15T01:19:05;96452.00;;;1.10
19040;BMP180;9652;49.014;12.052;2024-01-15T01:21:33;96440.00;;;1.20
19040;BMP180;9652;49.014;12.052;2024-01-15T01:24:00;96426.00;;;1.20
19040;BMP180;9652;49.014;12.052;2024-01-15T01:26:27;96453.00;;;1.20
19040;BMP180;9652;49.014;12.052;2024-01-15T01:28:54;96449.00;;;1.20
19040;BMP180;9652;49.014;12.052;2024-01-15T01:31:21;96455.00;;;1.20
19040;BMP180;9652;49.014;12.052;2024-01-15T01:33:48;96462.00;;;1.20
19040;BMP180;9652;49.014;12.052;2024-01-15T01:36:16;96448.00;;;1.20
19040;BMP180;9652;49.014;12.052;2024-01-15T01:38:44;96437.00;;;1.20
19040;BMP180;9652;49.014;12.052;2024-01-15T01:41:11;96461.00;;;1.20
19040;BMP180;9652;49.014;12.052;2024-01-15T01:43:38;96451.00;;;0.90
19040;BMP180;9652;49.014;12.052;2024-01-15T01:46:05;96449.00;;;1.20
19040;BMP180;9652;49.014;12.052;2024-01-15T01:48:33;96462.00;;;1.20
19040;BMP180;9652;49.014;12.052;2024-01-15T01:51:02;96451.00;;;1.20
19040;BMP180;9652;49.014;12.052;2024-01-15T01:53:33;96450.00;;;1.20
19040;BMP180;9652;49.014;12.052;2024-01-15T01:56:03;96448.00;;;1.20
19040;BMP180;9652;49.014;12.052;2024-01-15T01:58:32;96447.00;;;1.00
19040;BMP180;9652;49.014;12.052;2024-01-15T02:01:00;96462.00;;;1.20
19040;BMP180;9652;49.014;12.052;2024-01-15T02:03:27;96442.00;;;1.20
19040;BMP180;9652;49.014;12.052;2024-01-15T02:05:56;96466.00;;;1.20
19040;BMP180;9652;49.014;12.052;2024-01-15T02:08:23;96419.00;;;1.20
19040;BMP180;9652;49.014;12.052;2024-01-15T02:10:51;96391.00;;;1.20
19040;BMP180;9652;49.014;12.052;2024-01-15T02:13:20;96436.00;;;1.20
19040;BMP180;9652;49.014;12.052;2024-01-15T02:15:47;96458.00;;;1.20
19040;BMP180;9652;49.014;12.052;2024-01-15T02:18:14;96451.00;;;1.20
19040;BMP180;9652;49.014;12.052;2024-01-15T02:20:41;96436.00;;;1.20
19040;BMP180;9652;49.014;12.052;2024-01-15T02:23:12;96450.00;;;1.20
19040;BMP180;9652;49.014;12.052;2024-01-15T02:25:41;96460.00;;;1.20
19040;BMP180;9652;49.014;12.052;2024-01-15T02:28:11;96452.00;;;1.20
19040;BMP180;9652;49.014;12.052;2024-01-15T02:30:40;96455.00;;;1.20
19040;BMP180;9652;49.014;12.052;2024-01-15T02:33:09;96449.00;;;1.20
19040;BMP180;9652;49.014;12.052;2024-01-15T02:35:36;96457.00;;;1.20
19040;BMP180;9652;49.014;12.052;2024-01-15T02:38:04;96437.00;;;1.20
19040;BMP180;9652;49.014;12.052;2024-01-15T02:40:33;96447.00;;;1.20
19040;BMP180;9652;49.014;12.052;2024-01-15T02:43:00;96446.00;;;1.20
19040;BMP180;9652;49.014;12.052;2024-01-15T02:45:27;96445.00;;;1.20
19040;BMP180;9652;49.014;12.052;2024-01-15T02:47:55;96453.00;;;1.20
19040;BMP180;9652;49.014;12.052;2024-01-15T02:50:22;96411.00;;;1.30
19040;BMP180;9652;49.014;12.052;2024-01-15T02:52:49;96462.00;;;1.20
19040;BMP180;9652;49.014;12.052;2024-01-15T02:55:16;96447.00;;;1.30
19040;BMP180;9652;49.014;12.052;2024-01-15T02:57:44;96460.00;;;1.30
19040;BMP180;9652;49.014;12.052;2024-01-15T03:00:12;96452.00;;;1.30
19040;BMP180;9652;49.014;12.052;2024-01-15T03:02:43;96456.00;;;1.30
19040;BMP180;9652;49.014;12.052;2024-01-15T03:05:11;96437.00;;;1.40
19040;BMP180;9652;49.014;12.052;2024-01-15T03:07:38;96446.00;;;1.40
19040;BMP180;9652;49.014;12.052;2024-01-15T03:10:06;96442.00;;;1.40
19040;BMP180;9652;49.014;12.052;2024-01-15T03:12:34;96425.00;;;1.50
19040;BMP180;9652;49.014;12.052;2024-01-15T03:15:03;96443.00;;;1.50
19040;BMP180;9652;49.014;12.052;2024-01-15T03:17:30;96449.00;;;1.50
19040;BMP180;9652;49.014;12.052;2024-01-15T03:19:57;96460.00;;;1.50
19040;BMP180;9652;49.014;12.052;2024-01-15T03:22:24;96440.00;;;1.50
19040;BMP180;9652;49.014;12.052;2024-01-15T03:24:53;96442.00;;;1.50
19040;BMP180;9652;49.014;12.052;2024-01-15T03:27:20;96437.00;;;1.60
19040;BMP180;9652;49.014;12.052;2024-01-15T03:29:47;96444.00;;;1.60
19040;BMP180;9652;49.014;12.052;2024-01-15T03:32:15;96414.00;;;1.60
19040;BMP180;9652;49.014;12.052;2024-01-15T03:34:42;96446.00;;;1.60
19040;BMP180;9652;49.014;12.052;2024-01-15T03:37:09;96443.00;;;1.60
19040;BMP180;9652;49.014;12.052;2024-01-15T03:39:36;96453.00;;;1.60
19040;BMP180;9652;49.014;12.052;2024-01-15T03:42:04;96443.00;;;1.60
19040;BMP180;9652;49.014;12.052;2024-01-15T03:44:31;96422.00;;;1.60
19040;BMP180;9652;49.014;12.052;2024-01-15T03:46:58;96444.00;;;1.60
19040;BMP180;9652;49.014;12.052;2024-01-15T03:49:26;96410.00;;;1.60
19040;BMP180;9652;49.014;12.052;2024-01-15T03:51:53;96431.00;;;1.60
19040;BMP180;9652;49.014;12.052;2024-01-15T03:54:20;96431.00;;;1.60
19040;BMP180;9652;49.014;12.052;2024-01-15T03:56:47;96421.00;;;1.60
19040;BMP180;9652;49.014;12.052;2024-01-15T03:59:15;96431.00;;;1.60
19040;BMP180;9652;49.014;12.052;2024-01-15T04:01:48;96434.00;;;1.60
19040;BMP180;9652;49.014;12.052;2024-01-15T04:04:16;96431.00;;;1.60
19040;BMP180;9652;49.014;12.052;2024-01-15T04:06:45;96429.00;;;1.60
19040;BMP180;9652;49.014;12.052;2024-01-15T04:09:13;96421.00;;;1.60
19040;BMP180;9652;49.014;12.052;2024-01-15T04:11:40;96421.00;;;1.50
19040;BMP180;9652;49.014;12.052;2024-01-15T04:14:08;96432.00;;;1.50
19040;BMP180;9652;49.014;12.052;2024-01-15T04:16:35;96428.00;;;1.50
19040;BMP180;9652;49.014;12.052;2024-01-15T04:19:02;96431.00;;;1.50
19040;BMP180;9652;49.014;12.052;2024-01-15T04:21:29;96424.00;;;1.50
19040;BMP180;9652;49.014;12.052;2024-01-15T04:23:57;96425.00;;;1.50
19040;BMP180;9652;49.014;12.052;2024-01-15T04:26:24;96435.00;;;1.50
19040;BMP180;9652;49.014;12.052;2024-01-15T04:28:51;96443.00;;;1.50
19040;BMP180;9652;49.014;12.052;2024-01-15T04:31:24;96439.00;;;1.50
19040;BMP180;9652;49.014;12.052;2024-01-15T04:33:52;96444.00;;;1.60
19040;BMP180;9652;49.014;12.052;2024-01-15T04:36:19;96427.00;;;1.60
19040;BMP180;9652;49.014;12.052;2024-01-15T04:38:46;96438.00;;;1.60
19040;BMP180;9652;49.014;12.052;2024-01-15T04:41:16;96436.00;;;1.60
19040;BMP180;9652;49.014;12.052;2024-01-15T04:43:43;96425.00;;;1.60
19040;BMP180;9652;49.014;12.052;2024-01-15T04:46:11;96422.00;;;1.60
19040;BMP180;9652;49.014;12.052;2024-01-15T04:48:38;96420.00;;;1.60
19040;BMP180;9652;49.014;12.052;2024-01-15T04:51:05;96435.00;;;1.60
19040;BMP180;9652;49.014;12.052;2024-01-15T04:53:34;96447.00;;;1.60
19040;BMP180;9652;49.014;12.052;2024-01-15T04:56:01;96445.00;;;1.60
19040;BMP180;9652;49.014;12.052;2024-01-15T04:58:30;96435.00;;;1.60
19040;BMP180;9652;49.014;12.052;2024-01-15T05:00:57;96369.00;;;1.60
19040;BMP180;9652;49.014;12.052;2024-01-15T05:03:24;96421.00;;;1.70
19040;BMP180;9652;49.014;12.052;2024-01-15T05:05:51;96414.00;;;1.70
19040;BMP180;9652;49.014;12.052;2024-01-15T05:08:18;96419.00;;;1.70
19040;BMP180;9652;49.014;12.052;2024-01-15T05:10:45;96428.00;;;1.70
19040;BMP180;9652;49.014;12.052;2024-01-15T05:13:12;96413.00;;;1.70
19040;BMP180;9652;49.014;12.052;2024-01-15T05:15:41;96415.00;;;1.70
19040;BMP180;9652;49.014;12.052;2024-01-15T05:18:08;96415.00;;;1.70
19040;BMP180;9652;49.014;12.052;2024-01-15T05:20:35;96404.00;;;1.80
19040;BMP180;9652;49.014;12.052;2024-01-15T05:23:03;96421.00;;;1.80
19040;BMP180;9652;49.014;12.052;2024-01-15T05:25:30;96419.00;;;1.80
19040;BMP180;9652;49.014;12.052;2024-01-15T05:27:57;96420.00;;;1.80
19040;BMP180;9652;49.014;12.052;2024-01-15T05:30:24;96424.00;;;1.80
19040;BMP180;9652;49.014;12.052;2024-01-15T05:32:52;96397.00;;;1.80
19040;BMP180;9652;49.014;12.052;2024-01-15T05:35:19;96422.00;;;1.80
19040;BMP180;9652;49.014;12.052;2024-01-15T05:37:46;96426.00;;;1.90
19040;BMP180;9652;49.014;12.052;2024-01-15T05:40:14;96419.00;;;1.90
19040;BMP180;9652;49.014;12.052;2024-01-15T05:42:41;96417.00;;;1.80
19040;BMP180;9652;49.014;12.052;2024-01-15T05:45:09;96417.00;;;1.80
19040;BMP180;9652;49.014;12.052;2024-01-15T05:47:36;96421.00;;;1.90
19040;BMP180;9652;49.014;12.052;2024-01-15T05:50:05;96452.00;;;1.90
19040;BMP180;9652;49.014;12.052;2024-01-15T05:52:32;96420.00;;;1.90
19040;BMP180;9652;49.014;12.052;2024-01-15T05:54:59;96414.00;;;1.90
19040;BMP180;9652;49.014;12.052;2024-01-15T05:57:26;96406.00;;;1.90
19040;BMP180;9652;49.014;12.052;2024-01-15T05:59:54;96350.00;;;1.90
19040;BMP180;9652;49.014;12.052;2024-01-15T06:02:21;96426.00;;;1.90
19040;BMP180;9652;49.014;12.052;2024-01-15T06:04:48;96425.00;;;1.90
19040;BMP180;9652;49.014;12.052;2024-01-15T06:07:16;96433.00;;;1.90
19040;BMP180;9652;49.014;12.052;2024-01-15T06:09:43;96410.00;;;1.90
19040;BMP180;9652;49.014;12.052;2024-01-15T06:12:10;96432.00;;;1.90
19040;BMP180;9652;49.014;12.052;2024-01-15T06:14:38;96431.00;;;2.00
19040;BMP180;9652;49.014;12.052;2024-01-15T06:17:05;96406.00;;;2.00
19040;BMP180;9652;49.014;12.052;2024-01-15T06:19:32;96436.00;;;2.00
19040;BMP180;9652;49.014;12.052;2024-01-15T06:21:59;96427.00;;;2.00
19040;BMP180;9652;49.014;12.052;2024-01-15T06:24:27;96424.00;;;2.00
19040;BMP180;9652;49.014;12.052;2024-01-15T06:26:54;96422.00;;;1.50
19040;BMP180;9652;49.014;12.052;2024-01-15T06:29:21;96419.00;;;2.10
19040;BMP180;9652;49.014;12.052;2024-01-15T06:31:49;96412.00;;;2.10
19040;BMP180;9652;49.014;12.052;2024-01-15T06:34:16;96419.00;;;2.10
19040;BMP180;9652;49.014;12.052;2024-01-15T06:36:43;96403.00;;;2.10
19040;BMP180;9652;49.014;12.052;2024-01-15T06:39:11;96421.00;;;2.20
19040;BMP180;9652;49.014;12.052;2024-01-15T06:41:39;96343.00;;;2.20
19040;BMP180;9652;49.014;12.052;2024-01-15T06:44:09;96425.00;;;2.20
19040;BMP180;9652;49.014;12.052;2024-01-15T06:46:38;96423.00;;;2.20
19040;BMP180;9652;49.014;12.052;2024-01-15T06:49:08;96425.00;;;2.20
19040;BMP180;9652;49.014;12.052;2024-01-15T06:51:35;96422.00;;;2.20
19040;BMP180;9652;49.014;12.052;2024-01-15T06:54:03;96418.00;;;2.20
19040;BMP180;9652;49.014;12.052;2024-01-15T06:56:31;96433.00;;;2.30
19040;BMP180;9652;49.014;12.052;2024-01-15T06:58:59;96420.00;;;2.30
19040;BMP180;9652;49.014;12.052;2024-01-15T07:01:26;96432.00;;;2.30
19040;BMP180;9652;49.014;12.052;2024-01-15T07:03:53;96425.00;;;2.30
19040;BMP180;9652;49.014;12.052;2024-01-15T07:06:20;96426.00;;;2.30
19040;BMP180;9652;49.014;12.052;2024-01-15T07:08:48;96432.00;;;2.30
19040;BMP180;9652;49.014;12.052;2024-01-15T07:11:15;96418.00;;;2.30
19040;BMP180;9652;49.014;12.052;2024-01-15T07:13:43;96418.00;;;2.30
19040;BMP180;9652;49.014;12.052;2024-01-15T07:16:11;96419.00;;;1.80
19040;BMP180;9652;49.014;12.052;2024-01-15T07:18:38;96374.00;;;2.30
19040;BMP180;9652;49.014;12.052;2024-01-15T07:21:05;96418.00;;;1.70
19040;BMP180;9652;49.014;12.052;2024-01-15T07:23:32;96404.00;;;2.30
19040;BMP180;9652;49.014;12.052;2024-01-15T07:25:59;96398.00;;;2.40
19040;BMP180;9652;49.014;12.052;2024-01-15T07:28:29;96419.00;;;2.40
19040;BMP180;9652;49.014;12.052;2024-01-15T07:30:56;96409.00;;;2.40
19040;BMP180;9652;49.014;12.052;2024-01-15T07:33:26;96409.00;;;2.40
19040;BMP180;9652;49.014;12.052;2024-01-15T07:35:53;96386.00;;;2.40
19040;BMP180;9652;49.014;12.052;2024-01-15T07:38:20;96403.00;;;2.40
19040;BMP180;9652;49.014;12.052;2024-01-15T07:40:48;96408.00;;;2.50
19040;BMP180;9652;49.014;12.052;2024-01-15T07:43:15;96397.00;;;2.50
19040;BMP180;9652;49.014;12.052;2024-01-15T07:45:42;96408.00;;;2.50
19040;BMP180;9652;49.014;12.052;2024-01-15T07:48:08;96387.00;;;2.60
19040;BMP180;9652;49.014;12.052;2024-01-15T07:50:37;96402.00;;;2.60
19040;BMP180;9652;49.014;12.052;2024-01-15T07:53:04;96342.00;;;2.60
19040;BMP180;9652;49.014;12.052;2024-01-15T07:55:31;96424.00;;;2.70
19040;BMP180;9652;49.014;12.052;2024-01-15T07:57:58;96397.00;;;2.70
19040;BMP180;9652;49.014;12.052;2024-01-15T08:00:25;96419.00;;;2.70
19040;BMP180;9652;49.014;12.052;2024-01-15T08:02:53;96423.00;;;2.70
19040;BMP180;9652;49.014;12.052;2024-01-15T08:05:20;96404.00;;;2.80
19040;BMP180;9652;49.014;12.052;2024-01-15T08:07:49;96426.00;;;2.80
19040;BMP180;9652;49.014;12.052;2024-01-15T08:10:16;96415.00;;;2.90
19040;BMP180;9652;49.014;12.052;2024-01-15T08:12:43;96400.00;;;2.90
19040;BMP180;9652;49.014;12.052;2024-01-15T08:15:10;96360.00;;;2.90
19040;BMP180;9652;49.014;12.052;2024-01-15T08:17:37;96398.00;;;2.90
19040;BMP180;9652;49.014;12.052;2024-01-15T08:20:05;96412.00;;;3.00
19040;BMP180;9652;49.014;12.052;2024-01-15T08:22:33;96418.00;;;3.00
19040;BMP180;9652;49.014;12.052;2024-01-15T08:25:01;96391.00;;;3.00
19040;BMP180;9652;49.014;12.052;2024-01-15T08:27:29;96397.00;;;3.00
19040;BMP180;9652;49.014;12.052;2024-01-15T08:29:56;96395.00;;;3.10
19040;BMP180;9652;49.014;12.052;2024-01-15T08:32:23;96386.00;;;3.10
19040;BMP180;9652;49.014;12.052;2024-01-15T08:34:50;96400.00;;;3.10
19040;BMP180;9652;49.014;12.052;2024-01-15T08:37:18;96380.00;;;3.20
19040;BMP180;9652;49.014;12.052;2024-01-15T08:39:45;96394.00;;;3.20
19040;BMP180;9652;49.014;12.052;2024-01-15T08:42:14;96386.00;;;3.20
19040;BMP180;9652;49.014;12.052;2024-01-15T08:44:40;96385.00;;;3.30
19040;BMP180;9652;49.014;12.052;2024-01-15T08:47:09;96384.00;;;3.30
19040;BMP180;9652;49.014;12.052;2024-01-15T08:49:36;96384.00;;;3.30
19040;BMP180;9652;49.014;12.052;2024-01-15T08:52:03;96373.00;;;3.40
19040;BMP180;9652;49.014;12.052;2024-01-15T08:54:30;96392.00;;;3.40
19040;BMP180;9652;49.014;12.052;2024-01-15T08:56:57;96372.00;;;3.40
19040;BMP180;9652;49.014;12.052;2024-01-15T08:59:26;96323.00;;;3.50
19040;BMP180;9652;49.014;12.052;2024-01-15T09:01:54;96377.00;;;3.50
19040;BMP180;9652;49.014;12.052;2024-01-15T09:04:23;96375.00;;;3.60
19040;BMP180;9652;49.014;12.052;2024-01-15T09:06:50;96385.00;;;3.60
19040;BMP180;9652;49.014;12.052;2024-01-15T09:09:17;96366.00;;;3.60
19040;BMP180;9652;49.014;12.052;2024-01-15T09:11:45;96378.00;;;3.70
19040;BMP180;9652;49.014;12.052;2024-01-15T09:14:13;96382.00;;;3.70
19040;BMP180;9652;49.014;12.052;2024-01-15T09:16:41;96384.00;;;3.70
19040;BMP180;9652;49.014;12.052;2024-01-15T09:19:08;96379.00;;;3.80
19040;BMP180;9652;49.014;12.052;2024-01-15T09:21:35;96295.00;;;3.80
19040;BMP180;9652;49.014;12.052;2024-01-15T09:24:05;96307.00;;;3.90
19040;BMP180;9652;49.014;12.052;2024-01-15T09:26:32;96387.00;;;3.90
19040;BMP180;9652;49.014;12.052;2024-01-15T09:28:59;96375.00;;;3.90
19040;BMP180;9652;49.014;12.052;2024-01-15T09:31:26;96402.00;;;3.90
19040;BMP180;9652;49.014;12.052;2024-01-15T09:33:55;96383.00;;;4.00
19040;BMP180;9652;49.014;12.052;2024-01-15T09:36:24;96354.00;;;4.00
19040;BMP180;9652;49.014;12.052;2024-01-15T09:38:51;96396.00;;;4.00
19040;BMP180;9652;49.014;12.052;2024-01-15T09:41:18;96389.00;;;4.00
19040;BMP180;9652;49.014;12.052;2024-01-15T09:43:46;96399.00;;;4.10
19040;BMP180;9652;49.014;12.052;2024-01-15T09:46:14;96391.00;;;4.10
19040;BMP180;9652;49.014;12.052;2024-01-15T09:48:42;96389.00;;;4.10
19040;BMP180;9652;49.014;12.052;2024-01-15T09:51:10;96389.00;;;4.10
19040;BMP180;9652;49.014;12.052;2024-01-15T09:53:39;96389.00;;;4.10
19040;BMP180;9652;49.014;12.052;2024-01-15T09:56:10;96387.00;;;4.10
19040;BMP180;9652;49.014;12.052;2024-01-15T09:58:38;96372.00;;;4.10
19040;BMP180;9652;49.014;12.052;2024-01-15T10:01:08;96394.00;;;4.10
19040;BMP180;9652;49.014;12.052;2024-01-15T10:03:35;96390.00;;;4.10
19040;BMP180;9652;49.014;12.052;2024-01-15T10:06:04;96373.00;;;4.10
19040;BMP180;9652;49.014;12.052;2024-01-15T10:08:36;96263.00;;;4.10
19040;BMP180;9652;49.014;12.052;2024-01-15T10:11:03;96386.00;;;4.20
19040;BMP180;9652;49.014;12.052;2024-01-15T10:13:31;96392.00;;;4.20
19040;BMP180;9652;49.014;12.052;2024-01-15T10:15:58;96386.00;;;4.30
19040;BMP180;9652;49.014;12.052;2024-01-15T10:18:26;96372.00;;;4.30
19040;BMP180;9652;49.014;12.052;2024-01-15T10:20:53;96369.00;;;4.30
19040;BMP180;9652;49.014;12.052;2024-01-15T10:23:20;96367.00;;;4.20
19040;BMP180;9652;49.014;12.052;2024-01-15T10:25:50;96373.00;;;4.20
19040;BMP180;9652;49.014;12.052;2024-01-15T10:28:19;96349.00;;;4.20
19040;BMP180;9652;49.014;12.052;2024-01-15T10:30:47;96361.00;;;4.20
19040;BMP180;9652;49.014;12.052;2024-01-15T10:33:22;96366.00;;;4.20
19040;BMP180;9652;49.014;12.052;2024-01-15T10:35:53;96363.00;;;4.20
19040;BMP180;9652;49.014;12.052;2024-01-15T10:38:21;96324.00;;;4.20
19040;BMP180;9652;49.014;12.052;2024-01-15T10:40:53;96354.00;;;4.20
19040;BMP180;9652;49.014;12.052;2024-01-15T10:43:21;96339.00;;;4.20
19040;BMP180;9652;49.014;12.052;2024-01-15T10:45:51;96353.00;;;4.20
19040;BMP180;9652;49.014;12.052;2024-01-15T10:48:19;96348.00;;;4.20
19040;BMP180;9652;49.014;12.052;2024-01-15T10:50:47;96332.00;;;4.30
19040;BMP180;9652;49.014;12.052;2024-01-15T10:53:17;96335.00;;;4.30
19040;BMP180;9652;49.014;12.052;2024-01-15T10:55:47;96323.00;;;4.30
19040;BMP180;9652;49.014;12.052;2024-01-15T10:58:16;96328.00;;;4.30
19040;BMP180;9652;49.014;12.052;2024-01-15T11:00:44;96334.00;;;4.40
19040;BMP180;9652;49.014;12.052;2024-01-15T11:03:12;96335.00;;;4.40
19040;BMP180;9652;49.014;12.052;2024-01-15T11:05:41;96336.00;;;4.50
19040;BMP180;9652;49.014;12.052;2024-01-15T11:08:09;96352.00;;;4.50
19040;BMP180;9652;49.014;12.052;2024-01-15T11:10:42;96351.00;;;4.50
19040;BMP180;9652;49.014;12.052;2024-01-15T11:13:19;96358.00;;;4.50
19040;BMP180;9652;49.014;12.052;2024-01-15T11:16:06;96336.00;;;4.50
19040;BMP180;9652;49.014;12.052;2024-01-15T11:18:37;96339.00;;;4.60
19040;BMP180;9652;49.014;12.052;2024-01-15T11:21:23;96326.00;;;4.50
19040;BMP180;9652;49.014;12.052;2024-01-15T11:23:54;96317.00;;;4.70
19040;BMP180;9652;49.014;12.052;2024-01-15T11:26:31;96308.00;;;4.70
19040;BMP180;9652;49.014;12.052;2024-01-15T11:29:02;96320.00;;;4.70
19040;BMP180;9652;49.014;12.052;2024-01-15T11:31:56;96318.00;;;4.80
19040;BMP180;9652;49.014;12.052;2024-01-15T11:34:57;96321.00;;;4.80
19040;BMP180;9652;49.014;12.052;2024-01-15T11:37:26;96296.00;;;4.80
19040;BMP180;9652;49.014;12.052;2024-01-15T11:39:55;96273.00;;;4.30
19040;BMP180;9652;49.014;12.052;2024-01-15T11:42:23;96311.00;;;4.90
19040;BMP180;9652;49.014;12.052;2024-01-15T11:44:52;96311.00;;;4.90
19040;BMP180;9652;49.014;12.052;2024-01-15T11:47:57;96259.00;;;4.90
19040;BMP180;9652;49.014;12.052;2024-01-15T11:50:31;96309.00;;;5.00
19040;BMP180;9652;49.014;12.052;2024-01-15T11:53:01;96298.00;;;5.00
19040;BMP180;9652;49.014;12.052;2024-01-15T11:55:34;96256.00;;;5.00
19040;BMP180;9652;49.014;12.052;2024-01-15T11:58:06;96319.00;;;5.00
19040;BMP180;9652;49.014;12.052;2024-01-15T12:00:40;96313.00;;;4.90
19040;BMP180;9652;49.014;12.052;2024-01-15T12:03:09;96318.00;;;4.90
19040;BMP180;9652;49.014;12.052;2024-01-15T12:05:37;96306.00;;;4.90
19040;BMP180;9652;49.014;12.052;2024-01-15T12:08:05;96314.00;;;4.90
19040;BMP180;9652;49.014;12.052;2024-01-15T12:10:37;96327.00;;;4.90
19040;BMP180;9652;49.014;12.052;2024-01-15T12:13:11;96308.00;;;4.80
19040;BMP180;9652;49.014;12.052;2024-01-15T12:15:42;96292.00;;;4.90
19040;BMP180;9652;49.014;12.052;2024-01-15T12:18:11;96311.00;;;4.80
19040;BMP180;9652;49.014;12.052;2024-01-15T12:20:41;96306.00;;;4.80
19040;BMP180;9652;49.014;12.052;2024-01-15T12:23:09;96289.00;;;4.80
19040;BMP180;9652;49.014;12.052;2024-01-15T12:25:37;96286.00;;;4.80
19040;BMP180;9652;49.014;12.052;2024-01-15T12:28:05;96279.00;;;4.70
19040;BMP180;9652;49.014;12.052;2024-01-15T12:30:34;96285.00;;;4.70
19040;BMP180;9652;49.014;12.052;2024-01-15T12:33:04;96291.00;;;4.70
19040;BMP180;9652;49.014;12.052;2024-01-15T12:35:33;96290.00;;;4.70
19040;BMP180;9652;49.014;12.052;2024-01-15T12:38:02;96251.00;;;4.70
19040;BMP180;9652;49.014;12.052;2024-01-15T12:40:30;96271.00;;;4.60
19040;BMP180;9652;49.014;12.052;2024-01-15T12:42:58;96277.00;;;4.60
19040;BMP180;9652;49.014;12.052;2024-01-15T12:45:25;96265.00;;;4.60
19040;BMP180;9652;49.014;12.052;2024-01-15T12:47:53;96267.00;;;4.60
19040;BMP180;9652;49.014;12.052;2024-01-15T12:50:24;96265.00;;;4.60
19040;BMP180;9652;49.014;12.052;2024-01-15T12:52:52;96272.00;;;4.70
19040;BMP180;9652;49.014;12.052;2024-01-15T12:55:19;96266.00;;;4.60
19040;BMP180;9652;49.014;12.052;2024-01-15T12:57:46;96266.00;;;4.60
19040;BMP180;9652;49.014;12.052;2024-01-15T13:00:14;96263.00;;;4.60
19040;BMP180;9652;49.014;12.052;2024-01-15T13:02:42;96258.00;;;4.60
19040;BMP180;9652;49.014;12.052;2024-01-15T13:05:10;96272.00;;;4.60
19040;BMP180;9652;49.014;12.052;2024-01-15T13:07:39;96262.00;;;4.60
19040;BMP180;9652;49.014;12.052;2024-01-15T13:10:07;96265.00;;;4.50
19040;BMP180;9652;49.014;12.052;2024-01-15T13:12:35;96255.00;;;4.50
19040;BMP180;9652;49.014;12.052;2024-01-15T13:15:02;96258.00;;;4.50
19040;BMP180;9652;49.014;12.052;2024-01-15T13:17:30;96274.00;;;4.50
19040;BMP180;9652;49.014;12.052;2024-01-15T13:19:57;96256.00;;;4.50
19040;BMP180;9652;49.014;12.052;2024-01-15T13:22:24;96259.00;;;4.40
19040;BMP180;9652;49.014;12.052;2024-01-15T13:24:57;96251.00;;;4.40
19040;BMP180;9652;49.014;12.052;2024-01-15T13:27:24;96251.00;;;4.40
19040;BMP180;9652;49.014;12.052;2024-01-15T13:29:51;96242.00;;;4.40
19040;BMP180;9652;49.014;12.052;2024-01-15T13:32:24;96259.00;;;4.40
19040;BMP180;9652;49.014;12.052;2024-01-15T13:34:52;96268.00;;;4.40
19040;BMP180;9652;49.014;12.052;2024-01-15T13:37:19;96266.00;;;4.40
19040;BMP180;9652;49.014;12.052;2024-01-15T13:39:46;96242.00;;;4.40
19040;BMP180;9652;49.014;12.052;2024-01-15T13:42:14;96203.00;;;4.40
19040;BMP180;9652;49.014;12.052;2024-01-15T13:44:41;96281.00;;;4.30
19040;BMP180;9652;49.014;12.052;2024-01-15T13:47:09;96261.00;;;4.30
19040;BMP180;9652;49.014;12.052;2024-01-15T13:49:36;96260.00;;;4.30
19040;BMP180;9652;49.014;12.052;2024-01-15T13:52:04;96275.00;;;4.30
19040;BMP180;9652;49.014;12.052;2024-01-15T13:54:31;96281.00;;;4.30
19040;BMP180;9652;49.014;12.052;2024-01-15T13:56:58;96282.00;;;4.30
19040;BMP180;9652;49.014;12.052;2024-01-15T13:59:26;96291.00;;;4.30
19040;BMP180;9652;49.014;12.052;2024-01-15T14:01:54;96292.00;;;4.30
19040;BMP180;9652;49.014;12.052;2024-01-15T14:04:21;96296.00;;;4.20
19040;BMP180;9652;49.014;12.052;2024-01-15T14:06:48;96287.00;;;4.20
19040;BMP180;9652;49.014;12.052;2024-01-15T14:09:15;96271.00;;;4.20
19040;BMP180;9652;49.014;12.052;2024-01-15T14:11:42;96294.00;;;4.20
19040;BMP180;9652;49.014;12.052;2024-01-15T14:14:09;96272.00;;;4.20
19040;BMP180;9652;49.014;12.052;2024-01-15T14:16:37;96296.00;;;4.10
19040;BMP180;9652;49.014;12.052;2024-01-15T14:19:04;96283.00;;;4.10
19040;BMP180;9652;49.014;12.052;2024-01-15T14:21:35;96290.00;;;4.10
19040;BMP180;9652;49.014;12.052;2024-01-15T14:24:02;96304.00;;;4.00
19040;BMP180;9652;49.014;12.052;2024-01-15T14:26:29;96305.00;;;4.00